ES-0249 weather

Beuda Besalu Private Airstrip
Catalonia, Spain

Public forecast

Using degrees Celsius for public forecast. Weather courtesy of forecast.io.

METAR (pilot weather report)

Closest report is Girona Airport, 18.8 nm (34.8 km) S. Retrieved 2019/09/16 01:30 UTC (0 seconds ago):

LEGE 160130Z 00000KT CAVOK 16/14 Q1021

TAF (pilot weather forecast)

Forecast is more than 12 hours old.

Closest forecast is Girona Airport, 18.8 nm (34.8 km) S. Retrieved 2019/09/15 00:27 UTC (1 day ago):

TAF LEGE 152300Z 1600/1624 VRB03KT 9999 FEW040 TX31/1613Z TN15/1606Z BECMG 1610/1612 18010KT BECMG 1618/1620 VRB03KT